createdAt,value
2022-09-12T15:59:13.856Z,53.94
2022-09-12T16:01:41.342Z,53.86
2022-09-12T16:04:23.930Z,53.65
2022-09-12T16:06:55.968Z,53.60
2022-09-12T16:09:24.050Z,53.53
2022-09-12T16:11:51.449Z,53.74
2022-09-12T16:14:19.435Z,53.26
2022-09-12T16:16:59.362Z,53.67
2022-09-12T16:19:26.736Z,52.12
2022-09-12T16:21:53.720Z,52.32
2022-09-12T16:24:21.334Z,52.57
2022-09-12T16:26:48.821Z,51.72
2022-09-12T16:29:16.120Z,52.14
2022-09-12T16:31:43.607Z,52.48
2022-09-12T16:34:11.588Z,51.74
2022-09-12T16:36:39.004Z,51.95
2022-09-12T16:39:06.912Z,51.15
2022-09-12T16:41:34.321Z,50.79
2022-09-12T16:44:01.504Z,51.41
2022-09-12T16:46:29.074Z,51.65
2022-09-12T16:48:58.191Z,52.05
2022-09-12T16:51:28.631Z,51.45
2022-09-12T16:53:56.395Z,51.12
2022-09-12T16:56:24.450Z,51.21
2022-09-12T16:58:52.236Z,51.23
2022-09-12T17:01:22.182Z,51.14
2022-09-12T17:03:54.176Z,51.38
2022-09-12T17:06:22.027Z,50.58
2022-09-12T17:08:52.224Z,50.88
2022-09-12T17:11:24.953Z,51.10
2022-09-12T17:14:10.080Z,50.66
2022-09-12T17:16:40.756Z,50.24
2022-09-12T17:19:09.306Z,49.96
2022-09-12T17:21:37.088Z,50.56
2022-09-12T17:24:07.178Z,49.68
2022-09-12T17:26:34.409Z,49.77
2022-09-12T17:29:02.023Z,50.00
2022-09-12T17:31:29.706Z,50.11
2022-09-12T17:33:58.836Z,50.10
2022-09-12T17:36:27.741Z,50.01
2022-09-12T17:38:55.748Z,49.73
2022-09-12T17:41:25.324Z,50.08
2022-09-12T17:43:56.775Z,50.23
2022-09-12T17:46:30.317Z,49.90
2022-09-12T17:48:58.626Z,49.84
2022-09-12T17:51:29.035Z,49.67
2022-09-12T17:53:59.280Z,49.97
2022-09-12T17:56:28.185Z,49.73
2022-09-12T17:58:57.110Z,49.85
2022-09-12T18:01:44.500Z,50.36
2022-09-12T18:04:11.858Z,49.86
2022-09-12T18:06:40.318Z,49.72
2022-09-12T18:09:09.703Z,49.69
2022-09-12T18:11:37.382Z,49.78
2022-09-12T18:14:05.681Z,49.75
2022-09-12T18:16:32.763Z,50.11
2022-09-12T18:19:01.590Z,50.15
2022-09-12T18:21:29.506Z,49.75
2022-09-12T18:23:59.410Z,49.56
2022-09-12T18:26:28.356Z,49.60
2022-09-12T18:28:55.870Z,50.02
2022-09-12T18:31:25.285Z,49.77
2022-09-12T18:33:53.065Z,49.79
2022-09-12T18:36:21.225Z,49.75
2022-09-12T18:38:48.857Z,49.88
2022-09-12T18:41:18.339Z,49.70
2022-09-12T18:43:45.952Z,49.87
2022-09-12T18:46:18.189Z,49.87
2022-09-12T18:48:46.413Z,50.00
2022-09-12T18:51:21.916Z,50.03
2022-09-12T18:53:52.190Z,49.80
2022-09-12T18:56:19.819Z,49.71
2022-09-12T18:58:51.997Z,49.97
2022-09-12T19:01:23.682Z,49.70
2022-09-12T19:03:52.377Z,49.84
2022-09-12T19:06:24.780Z,49.92
2022-09-12T19:08:53.540Z,49.92
2022-09-12T19:11:21.667Z,49.99
2022-09-12T19:13:51.270Z,49.91
2022-09-12T19:16:22.896Z,49.66
2022-09-12T19:18:52.368Z,49.93
2022-09-12T19:21:31.258Z,50.19
2022-09-12T19:24:01.516Z,50.26
2022-09-12T19:26:29.791Z,50.28
2022-09-12T19:28:57.520Z,50.87
2022-09-12T19:31:25.460Z,51.25
2022-09-12T19:33:52.867Z,51.45
2022-09-12T19:39:09.380Z,50.91
2022-09-12T19:41:36.769Z,52.28
2022-09-12T19:44:05.237Z,51.86
2022-09-12T19:46:32.828Z,51.40
2022-09-12T19:49:00.374Z,52.23
2022-09-12T19:51:27.551Z,53.06
2022-09-12T19:53:54.639Z,52.82
2022-09-12T19:56:22.218Z,51.94
2022-09-12T19:58:56.011Z,53.16
2022-09-12T20:01:30.766Z,53.15
2022-09-12T20:03:59.159Z,53.39
2022-09-12T20:06:27.603Z,53.35
2022-09-12T20:08:55.481Z,52.76
2022-09-12T20:11:24.062Z,53.81
2022-09-12T20:13:52.892Z,53.40
2022-09-12T20:16:25.854Z,53.57
2022-09-12T20:18:58.466Z,53.91
2022-09-12T20:21:31.943Z,54.34
2022-09-12T20:24:01.457Z,53.61
2022-09-12T20:26:28.760Z,54.02
2022-09-12T20:28:55.896Z,53.63
2022-09-12T20:31:23.151Z,53.57
2022-09-12T20:33:52.053Z,53.86
2022-09-12T20:36:21.629Z,53.84
2022-09-12T20:38:54.286Z,53.80
2022-09-12T20:41:21.730Z,53.90
2022-09-12T20:43:56.329Z,54.35
2022-09-12T20:46:24.568Z,54.89
2022-09-12T20:48:52.433Z,53.60
2022-09-12T20:51:20.963Z,54.25
2022-09-12T20:53:52.330Z,54.44
2022-09-12T20:56:19.538Z,54.10
2022-09-12T20:58:46.650Z,54.71
2022-09-12T21:01:16.094Z,54.80
2022-09-12T21:03:44.410Z,54.77
2022-09-12T21:06:13.087Z,54.89
2022-09-12T21:08:41.594Z,55.11
2022-09-12T21:11:09.344Z,54.35
2022-09-12T21:13:37.414Z,53.93
2022-09-12T21:16:08.039Z,53.74
2022-09-12T21:18:36.084Z,53.37
2022-09-12T21:21:04.278Z,53.29
2022-09-12T21:23:31.745Z,53.41
2022-09-12T21:26:02.428Z,53.29
2022-09-12T21:28:29.891Z,53.60
2022-09-12T21:30:57.000Z,53.57
2022-09-12T21:33:24.107Z,53.47
2022-09-12T21:35:51.297Z,53.28
2022-09-12T21:38:19.637Z,53.81
2022-09-12T21:40:47.969Z,54.10
2022-09-12T21:43:15.262Z,53.99
2022-09-12T21:45:42.452Z,53.98
2022-09-12T21:48:10.090Z,54.03
2022-09-12T21:50:37.118Z,54.47
2022-09-12T21:53:04.159Z,54.53
2022-09-12T21:55:31.436Z,54.20
2022-09-12T21:57:58.515Z,53.66
2022-09-12T22:00:25.585Z,53.64
2022-09-12T22:02:53.842Z,53.65
2022-09-12T22:05:24.793Z,53.64
2022-09-12T22:07:52.741Z,54.32
2022-09-12T22:10:19.803Z,54.31
2022-09-12T22:12:46.926Z,55.06
2022-09-12T22:15:38.927Z,54.69
2022-09-12T22:18:01.362Z,54.54
2022-09-12T22:20:28.730Z,55.09
2022-09-12T22:23:14.240Z,55.58
2022-09-12T22:25:41.375Z,55.61
2022-09-12T22:28:08.453Z,55.36
2022-09-12T22:30:35.607Z,55.86
2022-09-12T22:33:02.564Z,56.23
2022-09-12T22:35:29.685Z,56.46
2022-09-12T22:37:56.760Z,56.12
2022-09-12T22:40:23.912Z,56.51
2022-09-12T22:42:54.137Z,56.55
2022-09-12T22:45:21.157Z,56.58
2022-09-12T22:47:48.210Z,57.21
2022-09-12T22:50:15.314Z,56.95
2022-09-12T22:52:42.368Z,57.12
2022-09-12T22:55:10.576Z,57.09
2022-09-12T22:57:37.929Z,57.54
2022-09-12T23:00:10.718Z,57.11
2022-09-12T23:02:38.280Z,57.87
2022-09-12T23:05:06.243Z,57.65
2022-09-12T23:07:33.624Z,57.68
2022-09-12T23:10:00.701Z,57.86
2022-09-12T23:12:27.957Z,58.16
2022-09-12T23:14:54.976Z,58.37
2022-09-12T23:17:21.985Z,58.25
2022-09-12T23:19:49.157Z,58.42
2022-09-12T23:22:16.156Z,58.52
2022-09-12T23:24:43.237Z,57.88
2022-09-12T23:27:10.449Z,57.99
2022-09-12T23:29:37.495Z,58.43
2022-09-12T23:32:04.814Z,58.27
2022-09-12T23:34:33.684Z,57.93
2022-09-12T23:37:00.747Z,58.11
2022-09-12T23:39:28.028Z,57.72
2022-09-12T23:41:55.697Z,58.13
2022-09-12T23:44:22.794Z,58.92
2022-09-12T23:46:49.755Z,58.63
2022-09-12T23:49:16.840Z,58.20
2022-09-12T23:51:44.617Z,58.20
2022-09-12T23:54:11.757Z,58.60
2022-09-12T23:56:38.804Z,58.57
2022-09-12T23:59:05.964Z,58.49
